sensor_id;sensor_type;location;lat;lon;timestamp;pressure;altitude;pressure_sealevel;temperature;humidity
46955;BME280;32708;51.212;6.788;2022-08-19T00:01:51;100720.84;;;22.22;100.00
46955;BME280;32708;51.212;6.788;2022-08-19T00:04:24;100723.19;;;22.20;100.00
46955;BME280;32708;51.212;6.788;2022-08-19T00:06:52;100731.94;;;22.11;100.00
46955;BME280;32708;51.212;6.788;2022-08-19T00:09:21;100732.72;;;22.26;100.00
46955;BME280;32708;51.212;6.788;2022-08-19T00:11:48;100730.31;;;22.46;100.00
46955;BME280;32708;51.212;6.788;2022-08-19T00:14:17;100728.72;;;22.52;100.00
46955;BME280;32708;51.212;6.788;2022-08-19T00:16:46;100722.75;;;22.43;100.00
46955;BME280;32708;51.212;6.788;2022-08-19T00:19:15;100723.19;;;22.38;100.00
46955;BME280;32708;51.212;6.788;2022-08-19T00:21:42;100719.59;;;22.34;100.00
46955;BME280;32708;51.212;6.788;2022-08-19T00:24:12;100720.00;;;22.29;100.00
46955;BME280;32708;51.212;6.788;2022-08-19T00:26:39;100727.97;;;22.16;100.00
46955;BME280;32708;51.212;6.788;2022-08-19T00:29:09;100730.72;;;21.87;100.00
46955;BME280;32708;51.212;6.788;2022-08-19T00:31:36;100719.22;;;21.82;100.00
46955;BME280;32708;51.212;6.788;2022-08-19T00:34:03;100719.59;;;21.77;100.00
46955;BME280;32708;51.212;6.788;2022-08-19T00:36:30;100714.84;;;21.91;100.00
46955;BME280;32708;51.212;6.788;2022-08-19T00:38:57;100721.97;;;21.71;100.00
46955;BME280;32708;51.212;6.788;2022-08-19T00:41:25;100721.94;;;21.46;100.00
46955;BME280;32708;51.212;6.788;2022-08-19T00:46:27;100723.16;;;21.66;100.00
46955;BME280;32708;51.212;6.788;2022-08-19T00:48:55;100717.59;;;21.66;100.00
46955;BME280;32708;51.212;6.788;2022-08-19T00:51:27;100713.56;;;21.32;100.00
46955;BME280;32708;51.212;6.788;2022-08-19T00:53:58;100720.72;;;21.40;100.00
46955;BME280;32708;51.212;6.788;2022-08-19T00:56:27;100713.19;;;21.48;100.00
46955;BME280;32708;51.212;6.788;2022-08-19T00:58:58;100714.41;;;21.47;100.00
46955;BME280;32708;51.212;6.788;2022-08-19T01:01:24;100711.22;;;21.52;100.00
46955;BME280;32708;51.212;6.788;2022-08-19T01:03:51;100713.59;;;21.46;100.00
46955;BME280;32708;51.212;6.788;2022-08-19T01:06:18;100717.47;;;21.24;100.00
46955;BME280;32708;51.212;6.788;2022-08-19T01:08:45;100717.56;;;21.45;100.00
46955;BME280;32708;51.212;6.788;2022-08-19T01:11:12;100724.66;;;21.32;100.00
46955;BME280;32708;51.212;6.788;2022-08-19T01:13:39;100716.69;;;21.27;100.00
46955;BME280;32708;51.212;6.788;2022-08-19T01:16:11;100712.00;;;21.41;100.00
46955;BME280;32708;51.212;6.788;2022-08-19T01:18:41;100721.53;;;21.44;100.00
46955;BME280;32708;51.212;6.788;2022-08-19T01:21:30;100712.41;;;21.54;100.00
46955;BME280;32708;51.212;6.788;2022-08-19T01:23:57;100715.19;;;21.43;100.00
46955;BME280;32708;51.212;6.788;2022-08-19T01:26:26;100711.53;;;21.25;100.00
46955;BME280;32708;51.212;6.788;2022-08-19T01:28:57;100724.56;;;21.10;100.00
46955;BME280;32708;51.212;6.788;2022-08-19T01:31:27;100715.44;;;21.06;100.00
46955;BME280;32708;51.212;6.788;2022-08-19T01:33:58;100722.13;;;20.95;100.00
46955;BME280;32708;51.212;6.788;2022-08-19T01:36:42;100713.06;;;21.08;100.00
46955;BME280;32708;51.212;6.788;2022-08-19T01:39:22;100714.56;;;20.92;100.00
46955;BME280;32708;51.212;6.788;2022-08-19T01:41:50;100718.56;;;20.98;100.00
46955;BME280;32708;51.212;6.788;2022-08-19T01:44:17;100712.56;;;20.81;100.00
46955;BME280;32708;51.212;6.788;2022-08-19T01:46:48;100714.56;;;20.88;100.00
46955;BME280;32708;51.212;6.788;2022-08-19T01:49:16;100719.31;;;20.87;100.00
46955;BME280;32708;51.212;6.788;2022-08-19T01:51:43;100719.34;;;20.91;100.00
46955;BME280;32708;51.212;6.788;2022-08-19T01:54:12;100713.75;;;20.84;100.00
46955;BME280;32708;51.212;6.788;2022-08-19T01:56:38;100717.00;;;21.04;100.00
46955;BME280;32708;51.212;6.788;2022-08-19T01:59:15;100709.84;;;20.99;100.00
46955;BME280;32708;51.212;6.788;2022-08-19T02:01:42;100708.66;;;21.00;100.00
46955;BME280;32708;51.212;6.788;2022-08-19T02:04:09;100713.47;;;21.10;100.00
46955;BME280;32708;51.212;6.788;2022-08-19T02:06:35;100705.13;;;21.14;100.00
46955;BME280;32708;51.212;6.788;2022-08-19T02:09:04;100709.84;;;20.99;100.00
46955;BME280;32708;51.212;6.788;2022-08-19T02:11:35;100707.84;;;20.89;100.00
46955;BME280;32708;51.212;6.788;2022-08-19T02:14:05;100698.44;;;20.42;100.00
46955;BME280;32708;51.212;6.788;2022-08-19T02:16:34;100698.19;;;20.61;100.00
46955;BME280;32708;51.212;6.788;2022-08-19T02:19:00;100702.56;;;20.66;100.00
46955;BME280;32708;51.212;6.788;2022-08-19T02:21:29;100709.38;;;20.83;100.00
46955;BME280;32708;51.212;6.788;2022-08-19T02:23:56;100710.59;;;20.89;100.00
46955;BME280;32708;51.212;6.788;2022-08-19T02:26:23;100715.44;;;21.10;100.00
46955;BME280;32708;51.212;6.788;2022-08-19T02:28:49;100718.19;;;21.06;100.00
46955;BME280;32708;51.212;6.788;2022-08-19T02:31:20;100706.38;;;21.27;100.00
46955;BME280;32708;51.212;6.788;2022-08-19T02:33:48;100715.09;;;21.26;100.00
46955;BME280;32708;51.212;6.788;2022-08-19T02:36:16;100713.13;;;21.26;100.00
46955;BME280;32708;51.212;6.788;2022-08-19T02:38:44;100709.91;;;21.13;100.00
46955;BME280;32708;51.212;6.788;2022-08-19T02:41:25;100711.44;;;21.00;100.00
46955;BME280;32708;51.212;6.788;2022-08-19T02:43:56;100726.13;;;21.04;100.00
46955;BME280;32708;51.212;6.788;2022-08-19T02:46:29;100730.06;;;21.00;100.00
46955;BME280;32708;51.212;6.788;2022-08-19T02:49:01;100725.28;;;20.93;100.00
46955;BME280;32708;51.212;6.788;2022-08-19T02:51:37;100728.94;;;21.11;100.00
46955;BME280;32708;51.212;6.788;2022-08-19T02:54:06;100731.34;;;21.20;100.00
46955;BME280;32708;51.212;6.788;2022-08-19T02:56:35;100727.84;;;21.34;100.00
46955;BME280;32708;51.212;6.788;2022-08-19T02:59:03;100735.34;;;21.23;100.00
46955;BME280;32708;51.212;6.788;2022-08-19T03:01:38;100743.59;;;21.01;100.00
46955;BME280;32708;51.212;6.788;2022-08-19T03:04:09;100737.66;;;21.10;100.00
46955;BME280;32708;51.212;6.788;2022-08-19T03:06:38;100740.34;;;20.88;100.00
46955;BME280;32708;51.212;6.788;2022-08-19T03:09:05;100738.69;;;20.77;100.00
46955;BME280;32708;51.212;6.788;2022-08-19T03:11:33;100740.31;;;20.81;100.00
46955;BME280;32708;51.212;6.788;2022-08-19T03:14:01;100739.81;;;20.65;100.00
46955;BME280;32708;51.212;6.788;2022-08-19T03:16:32;100732.69;;;20.71;100.00
46955;BME280;32708;51.212;6.788;2022-08-19T03:19:00;100734.34;;;20.83;100.00
46955;BME280;32708;51.212;6.788;2022-08-19T03:21:30;100730.41;;;20.84;100.00
46955;BME280;32708;51.212;6.788;2022-08-19T03:24:00;100730.03;;;20.93;100.00
46955;BME280;32708;51.212;6.788;2022-08-19T03:26:28;100728.47;;;20.95;100.00
46955;BME280;32708;51.212;6.788;2022-08-19T03:28:55;100734.41;;;20.86;100.00
46955;BME280;32708;51.212;6.788;2022-08-19T03:31:23;100740.00;;;21.01;100.00
46955;BME280;32708;51.212;6.788;2022-08-19T03:33:51;100733.59;;;20.89;100.00
46955;BME280;32708;51.212;6.788;2022-08-19T03:36:25;100741.19;;;21.03;100.00
46955;BME280;32708;51.212;6.788;2022-08-19T03:38:57;100738.31;;;20.85;100.00
46955;BME280;32708;51.212;6.788;2022-08-19T03:41:37;100737.75;;;20.51;100.00
46955;BME280;32708;51.212;6.788;2022-08-19T03:44:04;100736.97;;;20.51;100.00
46955;BME280;32708;51.212;6.788;2022-08-19T03:46:32;100745.53;;;20.35;100.00
46955;BME280;32708;51.212;6.788;2022-08-19T03:49:03;100741.22;;;20.41;100.00
46955;BME280;32708;51.212;6.788;2022-08-19T03:51:37;100740.94;;;20.53;100.00
46955;BME280;32708;51.212;6.788;2022-08-19T03:54:10;100740.94;;;20.53;100.00
46955;BME280;32708;51.212;6.788;2022-08-19T03:56:40;100740.66;;;20.21;100.00
46955;BME280;32708;51.212;6.788;2022-08-19T03:59:16;100740.75;;;20.32;100.00
46955;BME280;32708;51.212;6.788;2022-08-19T04:01:43;100753.50;;;20.40;100.00
46955;BME280;32708;51.212;6.788;2022-08-19T04:04:09;100753.91;;;20.42;100.00
46955;BME280;32708;51.212;6.788;2022-08-19T04:06:39;100747.78;;;20.19;100.00
46955;BME280;32708;51.212;6.788;2022-08-19T04:09:08;100745.41;;;20.21;100.00
46955;BME280;32708;51.212;6.788;2022-08-19T04:11:44;100744.25;;;20.22;100.00
46955;BME280;32708;51.212;6.788;2022-08-19T04:14:14;100750.94;;;20.17;100.00
46955;BME280;32708;51.212;6.788;2022-08-19T04:16:42;100749.13;;;20.39;100.00
46955;BME280;32708;51.212;6.788;2022-08-19T04:19:14;100747.44;;;20.24;100.00
46955;BME280;32708;51.212;6.788;2022-08-19T04:21:47;100745.25;;;20.47;100.00
46955;BME280;32708;51.212;6.788;2022-08-19T04:24:15;100748.47;;;20.53;100.00
46955;BME280;32708;51.212;6.788;2022-08-19T04:26:41;100742.00;;;20.38;100.00
46955;BME280;32708;51.212;6.788;2022-08-19T04:29:17;100755.66;;;20.61;100.00
46955;BME280;32708;51.212;6.788;2022-08-19T04:31:45;100758.28;;;20.43;100.00
46955;BME280;32708;51.212;6.788;2022-08-19T04:34:16;100754.63;;;20.35;100.00
46955;BME280;32708;51.212;6.788;2022-08-19T04:36:44;100759.16;;;20.03;100.00
46955;BME280;32708;51.212;6.788;2022-08-19T04:39:15;100756.22;;;20.33;100.00
46955;BME280;32708;51.212;6.788;2022-08-19T04:41:42;100754.56;;;20.25;100.00
46955;BME280;32708;51.212;6.788;2022-08-19T04:44:28;100754.00;;;20.53;100.00
46955;BME280;32708;51.212;6.788;2022-08-19T04:46:57;100757.19;;;20.51;100.00
46955;BME280;32708;51.212;6.788;2022-08-19T04:49:24;100761.94;;;20.54;100.00
46955;BME280;32708;51.212;6.788;2022-08-19T04:51:53;100762.81;;;20.66;100.00
46955;BME280;32708;51.212;6.788;2022-08-19T04:54:24;100768.75;;;20.68;100.00
46955;BME280;32708;51.212;6.788;2022-08-19T04:56:53;100778.69;;;20.69;100.00
46955;BME280;32708;51.212;6.788;2022-08-19T04:59:20;100779.88;;;20.71;100.00
46955;BME280;32708;51.212;6.788;2022-08-19T05:01:48;100783.88;;;20.74;100.00
46955;BME280;32708;51.212;6.788;2022-08-19T05:04:18;100779.91;;;20.75;100.00
46955;BME280;32708;51.212;6.788;2022-08-19T05:06:48;100783.19;;;20.95;100.00
46955;BME280;32708;51.212;6.788;2022-08-19T05:09:16;100792.28;;;20.88;100.00
46955;BME280;32708;51.212;6.788;2022-08-19T05:11:43;100793.63;;;21.15;100.00
46955;BME280;32708;51.212;6.788;2022-08-19T05:14:11;100799.50;;;21.07;100.00
46955;BME280;32708;51.212;6.788;2022-08-19T05:16:39;100805.56;;;21.23;100.00
46955;BME280;32708;51.212;6.788;2022-08-19T05:19:06;100808.19;;;20.98;100.00
46955;BME280;32708;51.212;6.788;2022-08-19T05:21:51;100804.69;;;21.12;100.00
46955;BME280;32708;51.212;6.788;2022-08-19T05:24:37;100802.66;;;21.05;100.00
46955;BME280;32708;51.212;6.788;2022-08-19T05:27:04;100805.47;;;21.12;100.00
46955;BME280;32708;51.212;6.788;2022-08-19T05:29:33;100815.38;;;21.06;100.00
46955;BME280;32708;51.212;6.788;2022-08-19T05:32:05;100809.09;;;21.16;100.00
46955;BME280;32708;51.212;6.788;2022-08-19T05:34:37;100826.06;;;21.01;100.00
46955;BME280;32708;51.212;6.788;2022-08-19T05:37:05;100816.63;;;21.20;100.00
46955;BME280;32708;51.212;6.788;2022-08-19T05:39:36;100822.22;;;21.27;100.00
46955;BME280;32708;51.212;6.788;2022-08-19T05:42:10;100821.50;;;21.40;100.00
46955;BME280;32708;51.212;6.788;2022-08-19T05:44:41;100815.31;;;21.93;100.00
46955;BME280;32708;51.212;6.788;2022-08-19T05:47:13;100816.56;;;22.35;100.00
46955;BME280;32708;51.212;6.788;2022-08-19T05:49:42;100814.97;;;22.20;100.00
46955;BME280;32708;51.212;6.788;2022-08-19T05:52:13;100810.56;;;23.01;100.00
46955;BME280;32708;51.212;6.788;2022-08-19T05:54:42;100800.78;;;23.55;100.00
46955;BME280;32708;51.212;6.788;2022-08-19T05:57:10;100798.75;;;23.63;100.00
46955;BME280;32708;51.212;6.788;2022-08-19T05:59:36;100802.09;;;23.26;100.00
46955;BME280;32708;51.212;6.788;2022-08-19T06:02:04;100796.91;;;23.31;100.00
46955;BME280;32708;51.212;6.788;2022-08-19T06:04:31;100797.28;;;23.33;100.00
46955;BME280;32708;51.212;6.788;2022-08-19T06:06:57;100792.72;;;23.72;100.00
46955;BME280;32708;51.212;6.788;2022-08-19T06:09:25;100799.03;;;22.92;100.00
46955;BME280;32708;51.212;6.788;2022-08-19T06:11:56;100791.25;;;23.49;100.00
46955;BME280;32708;51.212;6.788;2022-08-19T06:14:31;100781.00;;;23.98;100.00
46955;BME280;32708;51.212;6.788;2022-08-19T06:16:59;100795.25;;;23.45;100.00
46955;BME280;32708;51.212;6.788;2022-08-19T06:19:29;100805.56;;;23.55;100.00
46955;BME280;32708;51.212;6.788;2022-08-19T06:21:59;100808.09;;;23.14;100.00
46955;BME280;32708;51.212;6.788;2022-08-19T06:24:28;100810.59;;;22.55;100.00
46955;BME280;32708;51.212;6.788;2022-08-19T06:26:58;100803.41;;;22.64;100.00
46955;BME280;32708;51.212;6.788;2022-08-19T06:29:27;100798.56;;;23.11;100.00
46955;BME280;32708;51.212;6.788;2022-08-19T06:31:56;100794.66;;;22.94;100.00
46955;BME280;32708;51.212;6.788;2022-08-19T06:34:25;100794.69;;;22.59;100.00
46955;BME280;32708;51.212;6.788;2022-08-19T06:36:53;100801.06;;;22.59;100.00
46955;BME280;32708;51.212;6.788;2022-08-19T06:39:25;100804.22;;;22.75;100.00
46955;BME280;32708;51.212;6.788;2022-08-19T06:41:57;100801.44;;;22.68;100.00
46955;BME280;32708;51.212;6.788;2022-08-19T06:44:30;100803.84;;;22.52;100.00
46955;BME280;32708;51.212;6.788;2022-08-19T06:47:07;100812.53;;;21.79;100.00
46955;BME280;32708;51.212;6.788;2022-08-19T06:49:35;100822.06;;;21.89;100.00
46955;BME280;32708;51.212;6.788;2022-08-19T06:52:03;100814.00;;;21.45;100.00
46955;BME280;32708;51.212;6.788;2022-08-19T06:54:30;100814.97;;;22.20;100.00
46955;BME280;32708;51.212;6.788;2022-08-19T06:56:59;100813.72;;;22.99;100.00
46955;BME280;32708;51.212;6.788;2022-08-19T06:59:31;100813.25;;;23.26;100.00
46955;BME280;32708;51.212;6.788;2022-08-19T07:02:03;100804.78;;;23.51;100.00
46955;BME280;32708;51.212;6.788;2022-08-19T07:04:35;100808.91;;;23.14;100.00
46955;BME280;32708;51.212;6.788;2022-08-19T07:07:12;100812.53;;;23.04;100.00
46955;BME280;32708;51.212;6.788;2022-08-19T07:09:42;100802.94;;;23.23;100.00
46955;BME280;32708;51.212;6.788;2022-08-19T07:12:13;100808.09;;;23.24;100.00
46955;BME280;32708;51.212;6.788;2022-08-19T07:14:43;100817.75;;;22.73;100.00
46955;BME280;32708;51.212;6.788;2022-08-19T07:17:12;100819.69;;;22.84;100.00
46955;BME280;32708;51.212;6.788;2022-08-19T07:19:40;100818.94;;;22.69;100.00
46955;BME280;32708;51.212;6.788;2022-08-19T07:22:08;100836.44;;;22.34;100.00
46955;BME280;32708;51.212;6.788;2022-08-19T07:24:37;100827.69;;;22.74;100.00
46955;BME280;32708;51.212;6.788;2022-08-19T07:27:06;100835.66;;;22.87;100.00
46955;BME280;32708;51.212;6.788;2022-08-19T07:29:35;100842.41;;;22.46;100.00
46955;BME280;32708;51.212;6.788;2022-08-19T07:32:04;100848.34;;;22.27;100.00
46955;BME280;32708;51.212;6.788;2022-08-19T07:34:32;100838.41;;;22.69;100.00
46955;BME280;32708;51.212;6.788;2022-08-19T07:37:05;100837.97;;;23.10;100.00
46955;BME280;32708;51.212;6.788;2022-08-19T07:39:35;100840.41;;;22.90;100.00
46955;BME280;32708;51.212;6.788;2022-08-19T07:42:09;100836.59;;;23.64;100.00
46955;BME280;32708;51.212;6.788;2022-08-19T07:44:37;100833.78;;;24.34;100.00
46955;BME280;32708;51.212;6.788;2022-08-19T07:47:05;100834.88;;;24.88;100.00
46955;BME280;32708;51.212;6.788;2022-08-19T07:49:31;100842.25;;;24.68;100.00
46955;BME280;32708;51.212;6.788;2022-08-19T07:52:04;100837.06;;;25.45;100.00
46955;BME280;32708;51.212;6.788;2022-08-19T07:54:35;100849.63;;;25.61;100.00
46955;BME280;32708;51.212;6.788;2022-08-19T07:57:04;100845.38;;;25.83;100.00
46955;BME280;32708;51.212;6.788;2022-08-19T07:59:31;100848.44;;;25.62;100.00
46955;BME280;32708;51.212;6.788;2022-08-19T08:01:58;100854.72;;;25.69;100.00
46955;BME280;32708;51.212;6.788;2022-08-19T08:04:30;100862.50;;;24.79;100.00
46955;BME280;32708;51.212;6.788;2022-08-19T08:07:16;100864.25;;;24.62;100.00
46955;BME280;32708;51.212;6.788;2022-08-19T08:10:01;100864.59;;;24.68;100.00
46955;BME280;32708;51.212;6.788;2022-08-19T08:12:34;100857.41;;;25.12;100.00
46955;BME280;32708;51.212;6.788;2022-08-19T08:15:08;100860.97;;;25.16;100.00
46955;BME280;32708;51.212;6.788;2022-08-19T08:17:35;100861.44;;;25.45;100.00
46955;BME280;32708;51.212;6.788;2022-08-19T08:20:06;100864.13;;;25.18;100.00
46955;BME280;32708;51.212;6.788;2022-08-19T08:22:33;100870.34;;;24.95;100.00
46955;BME280;32708;51.212;6.788;2022-08-19T08:25:22;100867.22;;;25.27;100.00
46955;BME280;32708;51.212;6.788;2022-08-19T08:27:49;100874.66;;;24.99;100.00
46955;BME280;32708;51.212;6.788;2022-08-19T08:30:23;100883.63;;;25.25;100.00
46955;BME280;32708;51.212;6.788;2022-08-19T08:32:51;100864.22;;;26.06;100.00
46955;BME280;32708;51.212;6.788;2022-08-19T08:35:22;100862.63;;;26.59;100.00
46955;BME280;32708;51.212;6.788;2022-08-19T08:37:52;100866.00;;;26.70;100.00
46955;BME280;32708;51.212;6.788;2022-08-19T08:40:47;100863.69;;;27.12;100.00
46955;BME280;32708;51.212;6.788;2022-08-19T08:43:32;100854.16;;;27.29;100.00
46955;BME280;32708;51.212;6.788;2022-08-19T08:46:15;100869.19;;;26.49;100.00
46955;BME280;32708;51.212;6.788;2022-08-19T08:48:53;100863.25;;;27.13;100.00
46955;BME280;32708;51.212;6.788;2022-08-19T08:51:42;100843.88;;;28.15;100.00
46955;BME280;32708;51.212;6.788;2022-08-19T08:54:15;100851.56;;;26.95;100.00
46955;BME280;32708;51.212;6.788;2022-08-19T08:56:47;100852.00;;;26.94;100.00
46955;BME280;32708;51.212;6.788;2022-08-19T08:59:36;100854.28;;;26.28;100.00
46955;BME280;32708;51.212;6.788;2022-08-19T09:02:03;100863.78;;;25.81;100.00
46955;BME280;32708;51.212;6.788;2022-08-19T09:04:30;100856.22;;;25.77;100.00
46955;BME280;32708;51.212;6.788;2022-08-19T09:10:39;100856.13;;;25.54;100.00
46955;BME280;32708;51.212;6.788;2022-08-19T09:13:30;100860.47;;;25.89;100.00
46955;BME280;32708;51.212;6.788;2022-08-19T09:16:06;100845.97;;;26.72;100.00
46955;BME280;32708;51.212;6.788;2022-08-19T09:18:51;100845.00;;;26.82;100.00
46955;BME280;32708;51.212;6.788;2022-08-19T09:21:21;100840.28;;;26.99;100.00
46955;BME280;32708;51.212;6.788;2022-08-19T09:23:49;100839.31;;;26.66;100.00
46955;BME280;32708;51.212;6.788;2022-08-19T09:26:19;100835.22;;;27.13;100.00
46955;BME280;32708;51.212;6.788;2022-08-19T09:28:49;100828.91;;;27.29;100.00
46955;BME280;32708;51.212;6.788;2022-08-19T09:31:23;100829.63;;;27.73;100.00
46955;BME280;32708;51.212;6.788;2022-08-19T09:33:52;100827.50;;;27.57;100.00
46955;BME280;32708;51.212;6.788;2022-08-19T09:36:25;100828.97;;;27.26;100.00
46955;BME280;32708;51.212;6.788;2022-08-19T09:38:53;100837.75;;;27.67;100.00
46955;BME280;32708;51.212;6.788;2022-08-19T09:41:23;100841.50;;;26.54;100.00
46955;BME280;32708;51.212;6.788;2022-08-19T09:43:53;100852.72;;;25.70;100.00
46955;BME280;32708;51.212;6.788;2022-08-19T09:46:25;100851.53;;;25.98;100.00
46955;BME280;32708;51.212;6.788;2022-08-19T09:48:54;100838.84;;;26.91;100.00
46955;BME280;32708;51.212;6.788;2022-08-19T09:51:24;100838.88;;;26.67;100.00
46955;BME280;32708;51.212;6.788;2022-08-19T09:53:52;100831.94;;;27.38;100.00
46955;BME280;32708;51.212;6.788;2022-08-19T09:56:22;100827.19;;;27.91;100.00
46955;BME280;32708;51.212;6.788;2022-08-19T09:58:49;100833.50;;;27.59;100.00
46955;BME280;32708;51.212;6.788;2022-08-19T10:01:24;100822.00;;;27.90;99.98
46955;BME280;32708;51.212;6.788;2022-08-19T10:03:55;100821.72;;;28.37;97.16
46955;BME280;32708;51.212;6.788;2022-08-19T10:06:28;100833.50;;;27.39;100.00
46955;BME280;32708;51.212;6.788;2022-08-19T10:09:00;100832.06;;;27.31;100.00
46955;BME280;32708;51.212;6.788;2022-08-19T10:11:26;100832.50;;;27.86;100.00
46955;BME280;32708;51.212;6.788;2022-08-19T10:13:53;100827.78;;;27.83;100.00
46955;BME280;32708;51.212;6.788;2022-08-19T10:16:23;100824.50;;;27.28;100.00
46955;BME280;32708;51.212;6.788;2022-08-19T10:18:51;100826.41;;;27.15;100.00
46955;BME280;32708;51.212;6.788;2022-08-19T10:21:27;100828.72;;;26.97;100.00
46955;BME280;32708;51.212;6.788;2022-08-19T10:23:57;100824.09;;;27.30;100.00
46955;BME280;32708;51.212;6.788;2022-08-19T10:26:29;100825.31;;;27.09;100.00
46955;BME280;32708;51.212;6.788;2022-08-19T10:28:57;100812.13;;;27.65;100.00
46955;BME280;32708;51.212;6.788;2022-08-19T10:31:27;100803.28;;;27.47;100.00
46955;BME280;32708;51.212;6.788;2022-08-19T10:33:55;100801.13;;;27.55;100.00
46955;BME280;32708;51.212;6.788;2022-08-19T10:36:35;100796.94;;;28.48;95.00
46955;BME280;32708;51.212;6.788;2022-08-19T10:39:08;100800.75;;;28.70;92.90
46955;BME280;32708;51.212;6.788;2022-08-19T10:41:38;100803.59;;;28.21;94.96
46955;BME280;32708;51.212;6.788;2022-08-19T10:44:12;100797.63;;;28.68;91.51
46955;BME280;32708;51.212;6.788;2022-08-19T10:46:42;100795.81;;;29.20;90.33
46955;BME280;32708;51.212;6.788;2022-08-19T10:49:12;100794.25;;;28.44;90.47
46955;BME280;32708;51.212;6.788;2022-08-19T10:51:41;100795.09;;;29.03;88.29
46955;BME280;32708;51.212;6.788;2022-08-19T10:54:26;100802.84;;;27.49;95.38
46955;BME280;32708;51.212;6.788;2022-08-19T10:57:14;100818.44;;;26.90;100.00
46955;BME280;32708;51.212;6.788;2022-08-19T10:59:41;100817.09;;;26.28;100.00
46955;BME280;32708;51.212;6.788;2022-08-19T11:02:11;100830.94;;;25.85;100.00
46955;BME280;32708;51.212;6.788;2022-08-19T11:04:40;100814.00;;;26.22;100.00
46955;BME280;32708;51.212;6.788;2022-08-19T11:07:09;100821.31;;;25.89;100.00
46955;BME280;32708;51.212;6.788;2022-08-19T11:09:42;100804.53;;;27.06;100.00
46955;BME280;32708;51.212;6.788;2022-08-19T11:12:10;100804.81;;;27.32;99.41
46955;BME280;32708;51.212;6.788;2022-08-19T11:14:38;100805.16;;;27.90;95.59
46955;BME280;32708;51.212;6.788;2022-08-19T11:17:06;100801.69;;;28.35;92.42
46955;BME280;32708;51.212;6.788;2022-08-19T11:19:33;100791.50;;;28.24;92.65
46955;BME280;32708;51.212;6.788;2022-08-19T11:22:00;100796.34;;;28.40;90.94
46955;BME280;32708;51.212;6.788;2022-08-19T11:24:29;100781.47;;;28.72;88.86
46955;BME280;32708;51.212;6.788;2022-08-19T11:27:07;100795.63;;;28.52;88.34
46955;BME280;32708;51.212;6.788;2022-08-19T11:29:38;100781.03;;;29.03;88.03
46955;BME280;32708;51.212;6.788;2022-08-19T11:32:10;100787.13;;;28.40;89.05
46955;BME280;32708;51.212;6.788;2022-08-19T11:34:37;100791.25;;;28.35;89.55
46955;BME280;32708;51.212;6.788;2022-08-19T11:37:05;100786.06;;;28.34;90.69
46955;BME280;32708;51.212;6.788;2022-08-19T11:39:34;100790.28;;;28.09;93.14
46955;BME280;32708;51.212;6.788;2022-08-19T11:42:01;100774.06;;;28.33;90.33
46955;BME280;32708;51.212;6.788;2022-08-19T11:44:47;100768.88;;;28.32;85.22
46955;BME280;32708;51.212;6.788;2022-08-19T11:47:13;100764.84;;;29.07;81.45
46955;BME280;32708;51.212;6.788;2022-08-19T11:49:39;100752.56;;;30.54;74.04
46955;BME280;32708;51.212;6.788;2022-08-19T11:52:05;100747.97;;;29.62;72.17
46955;BME280;32708;51.212;6.788;2022-08-19T11:54:32;100755.34;;;29.30;72.96
46955;BME280;32708;51.212;6.788;2022-08-19T11:56:59;100753.78;;;28.25;77.41
46955;BME280;32708;51.212;6.788;2022-08-19T11:59:27;100762.44;;;28.47;79.58
46955;BME280;32708;51.212;6.788;2022-08-19T12:01:53;100764.81;;;28.49;80.78
46955;BME280;32708;51.212;6.788;2022-08-19T12:04:19;100767.72;;;28.45;81.33
46955;BME280;32708;51.212;6.788;2022-08-19T12:06:45;100768.38;;;28.37;82.04
46955;BME280;32708;51.212;6.788;2022-08-19T12:09:11;100758.34;;;28.81;78.71
46955;BME280;32708;51.212;6.788;2022-08-19T12:11:39;100767.97;;;27.69;83.37
46955;BME280;32708;51.212;6.788;2022-08-19T12:14:11;100749.69;;;29.17;74.10
46955;BME280;32708;51.212;6.788;2022-08-19T12:16:37;100754.50;;;28.75;75.82
46955;BME280;32708;51.212;6.788;2022-08-19T12:19:05;100751.69;;;28.75;74.46
46955;BME280;32708;51.212;6.788;2022-08-19T12:21:35;100743.84;;;29.24;73.03
46955;BME280;32708;51.212;6.788;2022-08-19T12:24:05;100730.06;;;28.27;73.31
46955;BME280;32708;51.212;6.788;2022-08-19T12:26:31;100745.94;;;29.08;71.90
46955;BME280;32708;51.212;6.788;2022-08-19T12:28:59;100743.91;;;28.95;71.33
46955;BME280;32708;51.212;6.788;2022-08-19T12:31:29;100742.16;;;29.27;69.69
46955;BME280;32708;51.212;6.788;2022-08-19T12:33:55;100739.47;;;29.49;68.86
46955;BME280;32708;51.212;6.788;2022-08-19T12:36:22;100729.97;;;29.59;68.78
46955;BME280;32708;51.212;6.788;2022-08-19T12:38:49;100736.50;;;28.72;74.26
46955;BME280;32708;51.212;6.788;2022-08-19T12:41:17;100742.91;;;28.44;75.78
46955;BME280;32708;51.212;6.788;2022-08-19T12:43:45;100739.00;;;28.83;74.33
46955;BME280;32708;51.212;6.788;2022-08-19T12:46:12;100735.13;;;28.93;74.66
46955;BME280;32708;51.212;6.788;2022-08-19T12:48:39;100731.69;;;28.86;74.21
46955;BME280;32708;51.212;6.788;2022-08-19T12:51:13;100738.69;;;28.19;76.45
46955;BME280;32708;51.212;6.788;2022-08-19T12:53:41;100739.72;;;28.42;74.65
46955;BME280;32708;51.212;6.788;2022-08-19T12:56:11;100732.69;;;29.08;73.72
46955;BME280;32708;51.212;6.788;2022-08-19T12:58:37;100732.94;;;28.85;72.03
46955;BME280;32708;51.212;6.788;2022-08-19T13:01:13;100737.00;;;29.25;70.20
46955;BME280;32708;51.212;6.788;2022-08-19T13:03:40;100723.16;;;29.31;69.10
46955;BME280;32708;51.212;6.788;2022-08-19T13:06:09;100726.97;;;29.12;67.98